createdAt,value
2019-04-11T00:01:19.799Z,4.70
2019-04-11T00:03:49.348Z,5.13
2019-04-11T00:06:19.284Z,5.93
2019-04-11T00:08:49.937Z,4.97
2019-04-11T00:11:19.937Z,4.77
2019-04-11T00:13:49.552Z,5.07
2019-04-11T00:16:19.439Z,5.07
2019-04-11T00:18:49.940Z,4.50
2019-04-11T00:21:20.394Z,4.80
2019-04-11T00:23:50.892Z,4.67
2019-04-11T00:26:20.444Z,4.70
2019-04-11T00:28:50.069Z,4.93
2019-04-11T00:31:19.478Z,5.20
2019-04-11T00:33:48.762Z,5.37
2019-04-11T00:36:18.194Z,4.90
2019-04-11T00:38:47.850Z,5.27
2019-04-11T00:41:17.574Z,4.77
2019-04-11T00:43:46.927Z,5.37
2019-04-11T00:46:16.284Z,4.63
2019-04-11T00:48:46.125Z,5.40
2019-04-11T00:51:17.113Z,4.43
2019-04-11T00:53:46.556Z,5.47
2019-04-11T00:56:15.960Z,4.80
2019-04-11T00:58:45.699Z,5.10
2019-04-11T01:01:18.265Z,5.10
2019-04-11T01:03:47.536Z,5.33
2019-04-11T01:06:16.773Z,5.40
2019-04-11T01:08:46.070Z,5.50
2019-04-11T01:11:16.135Z,5.40
2019-04-11T01:13:50.858Z,4.87
2019-04-11T01:16:34.907Z,4.60
2019-04-11T01:19:04.620Z,4.60
2019-04-11T01:21:34.878Z,4.87
2019-04-11T01:24:04.098Z,5.83
2019-04-11T01:26:35.069Z,5.37
2019-04-11T01:29:04.578Z,5.30
2019-04-11T01:31:35.887Z,4.90
2019-04-11T01:34:06.380Z,4.73
2019-04-11T01:36:35.973Z,4.50
2019-04-11T01:39:27.875Z,4.80
2019-04-11T01:41:58.565Z,4.93
2019-04-11T01:44:28.468Z,4.53
2019-04-11T01:46:58.327Z,5.07
2019-04-11T01:49:28.324Z,5.43
2019-04-11T01:51:58.193Z,5.53
2019-04-11T01:54:28.116Z,4.73
2019-04-11T01:56:58.010Z,5.37
2019-04-11T01:59:27.275Z,4.40
2019-04-11T02:02:09.563Z,4.83
2019-04-11T02:04:43.933Z,4.80
2019-04-11T02:07:14.194Z,5.13
2019-04-11T02:09:44.216Z,5.10
2019-04-11T02:12:14.182Z,4.73
2019-04-11T02:14:43.889Z,4.20
2019-04-11T02:17:13.134Z,4.33
2019-04-11T02:19:42.591Z,4.70
2019-04-11T02:22:34.752Z,5.00
2019-04-11T02:25:22.954Z,4.73
2019-04-11T02:27:52.550Z,4.00
2019-04-11T02:30:22.871Z,4.30
2019-04-11T02:32:55.962Z,4.30
2019-04-11T02:35:26.794Z,4.97
2019-04-11T02:37:57.084Z,4.53
2019-04-11T02:40:27.654Z,4.53
2019-04-11T02:42:59.274Z,4.40
2019-04-11T02:45:42.680Z,4.93
2019-04-11T02:48:01.370Z,5.20
2019-04-11T02:50:32.022Z,4.23
2019-04-11T02:53:02.969Z,4.53
2019-04-11T02:55:33.675Z,4.77
2019-04-11T02:58:06.315Z,4.13
2019-04-11T03:00:40.267Z,4.23
2019-04-11T03:03:10.267Z,4.97
2019-04-11T03:05:41.664Z,4.70
2019-04-11T03:08:13.977Z,4.30
2019-04-11T03:10:42.993Z,4.30
2019-04-11T03:13:12.731Z,4.40
2019-04-11T03:15:57.381Z,4.30
2019-04-11T03:18:33.136Z,4.30
2019-04-11T03:21:01.543Z,4.20
2019-04-11T03:23:28.026Z,4.17
2019-04-11T03:25:58.326Z,3.93
2019-04-11T03:28:30.827Z,3.90
2019-04-11T03:31:26.436Z,4.17
2019-04-11T03:37:00.162Z,3.67
2019-04-11T03:38:57.051Z,4.03
2019-04-11T03:41:20.424Z,4.43
2019-04-11T03:43:47.799Z,3.80
2019-04-11T03:46:26.618Z,4.10
2019-04-11T03:48:51.134Z,4.10
2019-04-11T03:51:08.904Z,4.33
2019-04-11T03:53:41.071Z,3.80
2019-04-11T03:56:12.149Z,3.50
2019-04-11T03:58:43.579Z,4.10
2019-04-11T04:01:13.982Z,4.03
2019-04-11T04:03:44.714Z,4.13
2019-04-11T04:06:16.943Z,4.23
2019-04-11T04:08:50.647Z,4.30
2019-04-11T04:11:27.788Z,3.93
2019-04-11T04:14:37.154Z,4.30
2019-04-11T04:17:28.800Z,3.87
2019-04-11T04:20:12.888Z,3.77
2019-04-11T04:23:03.142Z,4.07
2019-04-11T04:25:32.542Z,4.07
2019-04-11T04:28:03.096Z,4.40
2019-04-11T04:30:35.846Z,4.37
2019-04-11T04:33:06.984Z,4.47
2019-04-11T04:35:38.020Z,4.30
2019-04-11T04:38:07.490Z,4.60
2019-04-11T04:40:50.949Z,5.00
2019-04-11T04:43:11.911Z,4.70
2019-04-11T04:45:58.161Z,4.47
2019-04-11T04:48:15.541Z,4.63
2019-04-11T04:50:42.448Z,4.80
2019-04-11T04:53:11.372Z,4.90
2019-04-11T04:55:41.204Z,4.33
2019-04-11T04:58:11.421Z,3.90
2019-04-11T05:00:40.592Z,4.53
2019-04-11T05:03:10.267Z,4.20
2019-04-11T05:05:39.771Z,5.00
2019-04-11T05:08:10.750Z,4.10
2019-04-11T05:10:40.380Z,4.83
2019-04-11T05:13:09.973Z,4.83
2019-04-11T05:15:39.061Z,4.37
2019-04-11T05:18:08.831Z,4.53
2019-04-11T05:20:38.924Z,4.37
2019-04-11T05:23:08.458Z,4.80
2019-04-11T05:25:37.599Z,5.33
2019-04-11T05:28:06.723Z,4.63
2019-04-11T05:30:36.421Z,4.70
2019-04-11T05:33:06.016Z,4.73
2019-04-11T05:35:36.263Z,4.60
2019-04-11T05:38:05.542Z,4.17
2019-04-11T05:40:36.333Z,4.80
2019-04-11T05:43:06.015Z,4.53
2019-04-11T05:45:35.996Z,4.37
2019-04-11T05:48:13.632Z,4.90
2019-04-11T05:50:47.853Z,4.87
2019-04-11T05:53:15.851Z,4.60
2019-04-11T05:55:47.221Z,5.30
2019-04-11T05:58:17.660Z,4.87
2019-04-11T06:01:01.347Z,5.17
2019-04-11T06:03:32.222Z,4.83
2019-04-11T06:06:09.099Z,5.33
2019-04-11T06:08:39.913Z,4.43
2019-04-11T06:11:23.661Z,4.70
2019-04-11T06:14:13.238Z,5.07
2019-04-11T06:16:49.461Z,4.83
2019-04-11T06:19:33.379Z,4.83
2019-04-11T06:22:08.668Z,5.07
2019-04-11T06:25:11.087Z,5.33
2019-04-11T06:28:13.848Z,5.47
2019-04-11T06:31:01.092Z,5.50
2019-04-11T06:33:32.862Z,5.10
2019-04-11T06:36:23.289Z,5.70
2019-04-11T06:39:12.227Z,5.13
2019-04-11T06:41:51.963Z,4.57
2019-04-11T06:44:43.460Z,4.77
2019-04-11T06:47:34.747Z,7.67
2019-04-11T06:50:19.427Z,12.43
2019-04-11T06:52:48.995Z,20.27
2019-04-11T06:55:39.172Z,6.30
2019-04-11T06:58:16.052Z,4.53
2019-04-11T07:00:51.510Z,4.27
2019-04-11T07:03:27.473Z,3.77
2019-04-11T07:05:57.547Z,4.30
2019-04-11T07:08:35.329Z,4.40
2019-04-11T07:11:07.300Z,16.50
2019-04-11T07:13:46.116Z,17.93
2019-04-11T07:16:16.068Z,10.73
2019-04-11T07:19:05.249Z,13.30
2019-04-11T07:21:36.087Z,10.03
2019-04-11T07:24:22.399Z,7.40
2019-04-11T07:26:58.828Z,6.80
2019-04-11T07:29:46.508Z,4.57
2019-04-11T07:32:22.159Z,4.23
2019-04-11T07:35:10.857Z,4.43
2019-04-11T07:37:49.369Z,4.17
2019-04-11T07:40:39.520Z,3.80
2019-04-11T07:43:17.238Z,4.60
2019-04-11T07:46:25.152Z,3.83
2019-04-11T07:49:03.746Z,3.50
2019-04-11T07:52:02.517Z,3.23
2019-04-11T07:54:31.739Z,3.73
2019-04-11T07:57:24.216Z,4.57
2019-04-11T08:00:20.476Z,9.87
2019-04-11T08:03:08.193Z,3.67
2019-04-11T08:05:56.630Z,3.20
2019-04-11T08:08:34.561Z,3.53
2019-04-11T08:11:07.825Z,4.07
2019-04-11T08:13:53.024Z,3.40
2019-04-11T08:16:39.240Z,3.33
2019-04-11T08:19:38.616Z,3.50
2019-04-11T08:22:36.356Z,4.10
2019-04-11T08:25:15.908Z,3.03
2019-04-11T08:27:58.299Z,2.90
2019-04-11T08:30:24.625Z,3.57
2019-04-11T08:32:56.054Z,3.10
2019-04-11T08:35:55.100Z,4.00
2019-04-11T08:38:29.094Z,4.20
2019-04-11T08:41:15.539Z,3.77
2019-04-11T08:43:45.601Z,3.67
2019-04-11T08:46:22.595Z,3.57
2019-04-11T08:48:54.560Z,3.60
2019-04-11T08:51:25.447Z,2.57
2019-04-11T08:54:13.599Z,2.30
2019-04-11T08:56:43.210Z,2.00
2019-04-11T08:59:46.113Z,2.07
2019-04-11T09:02:20.516Z,3.00
2019-04-11T09:05:19.674Z,2.50
2019-04-11T09:08:10.631Z,2.03
2019-04-11T09:10:58.234Z,2.13
2019-04-11T09:13:47.789Z,1.87
2019-04-11T09:16:41.584Z,1.80
2019-04-11T09:19:41.678Z,1.80
2019-04-11T09:22:29.097Z,2.00
2019-04-11T09:25:30.462Z,1.90
2019-04-11T09:28:11.267Z,1.87
2019-04-11T09:31:01.054Z,1.90
2019-04-11T09:33:59.442Z,2.10
2019-04-11T09:36:47.254Z,1.70
2019-04-11T09:39:41.372Z,6.40
2019-04-11T09:42:26.138Z,2.00
2019-04-11T09:45:13.337Z,2.20
2019-04-11T09:48:18.241Z,1.70
2019-04-11T09:51:05.168Z,2.73
2019-04-11T09:53:36.680Z,2.00
2019-04-11T09:56:36.228Z,1.90
2019-04-11T09:59:10.110Z,2.10
2019-04-11T10:01:58.265Z,2.53
2019-04-11T10:04:30.054Z,2.20
2019-04-11T10:07:17.568Z,1.60
2019-04-11T10:10:08.560Z,2.00
2019-04-11T10:12:56.230Z,2.00
2019-04-11T10:15:38.289Z,2.13
2019-04-11T10:18:40.711Z,2.20
2019-04-11T10:21:09.882Z,2.43
2019-04-11T10:24:01.534Z,2.47
2019-04-11T10:26:34.125Z,1.97
2019-04-11T10:29:25.771Z,1.70
2019-04-11T10:31:59.049Z,2.10
2019-04-11T10:34:50.126Z,2.00
2019-04-11T10:37:20.594Z,2.00
2019-04-11T10:40:08.039Z,1.90
2019-04-11T10:42:37.497Z,1.93
2019-04-11T10:45:29.380Z,1.87
2019-04-11T10:48:01.220Z,2.00
2019-04-11T10:50:52.776Z,2.30
2019-04-11T10:53:24.947Z,2.10
2019-04-11T10:56:13.925Z,1.93
2019-04-11T10:58:49.098Z,1.90
2019-04-11T11:01:36.304Z,6.03
2019-04-11T11:04:43.052Z,2.93
2019-04-11T11:07:18.699Z,2.13
2019-04-11T11:10:15.402Z,2.50
2019-04-11T11:13:03.080Z,2.53
2019-04-11T11:15:51.700Z,2.20
2019-04-11T11:19:03.610Z,2.00
2019-04-11T11:21:13.907Z,1.80
2019-04-11T11:24:03.225Z,1.90
2019-04-11T11:26:36.382Z,2.00
2019-04-11T11:29:26.726Z,2.00
2019-04-11T11:32:15.147Z,2.20
2019-04-11T11:35:03.441Z,2.20
2019-04-11T11:37:43.283Z,3.30
2019-04-11T11:40:30.078Z,2.00
2019-04-11T11:43:16.988Z,2.50
2019-04-11T11:46:04.452Z,2.80
2019-04-11T11:48:38.272Z,2.23
2019-04-11T11:51:22.696Z,2.00
2019-04-11T11:54:11.620Z,1.90
2019-04-11T11:56:42.460Z,2.13
2019-04-11T11:59:15.324Z,2.20
2019-04-11T12:02:02.298Z,2.10
2019-04-11T12:04:54.281Z,2.27
2019-04-11T12:07:27.187Z,2.20
2019-04-11T12:10:15.214Z,2.73
2019-04-11T12:13:12.594Z,2.60
2019-04-11T12:16:05.803Z,2.90
2019-04-11T12:18:54.240Z,2.87
2019-04-11T12:21:27.895Z,2.80
2019-04-11T12:24:30.134Z,2.80
2019-04-11T12:27:20.541Z,3.10
2019-04-11T12:30:09.562Z,2.90
2019-04-11T12:32:44.299Z,3.30
2019-04-11T12:35:40.034Z,3.27
2019-04-11T12:38:20.372Z,2.83
2019-04-11T12:41:07.392Z,3.20
2019-04-11T12:43:50.984Z,3.20
2019-04-11T12:46:37.664Z,3.27
2019-04-11T12:49:19.107Z,3.13
2019-04-11T12:52:13.041Z,3.40
2019-04-11T12:54:43.130Z,3.03
2019-04-11T12:57:43.941Z,2.93
2019-04-11T13:00:31.363Z,2.90
2019-04-11T13:03:17.987Z,2.90
2019-04-11T13:05:47.369Z,8.70
2019-04-11T13:08:44.567Z,14.60
2019-04-11T13:11:14.540Z,4.10
2019-04-11T13:14:07.628Z,3.43
2019-04-11T13:16:39.634Z,2.97
2019-04-11T13:19:22.592Z,2.73
2019-04-11T13:21:58.379Z,2.40
2019-04-11T13:24:45.168Z,2.70
2019-04-11T13:27:19.900Z,2.37
2019-04-11T13:30:07.932Z,2.43
2019-04-11T13:32:56.377Z,2.50
2019-04-11T13:35:43.158Z,2.67
2019-04-11T13:38:20.862Z,2.87
2019-04-11T13:41:15.187Z,2.50
2019-04-11T13:43:56.669Z,2.50
2019-04-11T13:46:48.105Z,2.30
2019-04-11T13:49:38.556Z,2.70
2019-04-11T13:52:29.459Z,2.60
2019-04-11T13:55:30.701Z,2.60
2019-04-11T13:58:31.630Z,3.70
2019-04-11T14:01:04.129Z,2.43
2019-04-11T14:03:58.883Z,3.50
2019-04-11T14:06:29.565Z,2.97
2019-04-11T14:09:23.961Z,3.10
2019-04-11T14:11:59.028Z,2.93
2019-04-11T14:14:45.727Z,2.53
2019-04-11T14:17:43.162Z,2.87
2019-04-11T14:20:43.869Z,2.90
2019-04-11T14:23:35.055Z,2.40
2019-04-11T14:26:29.926Z,2.97
2019-04-11T14:29:21.440Z,3.00
2019-04-11T14:31:54.683Z,3.17
2019-04-11T14:34:41.671Z,2.63
2019-04-11T14:37:25.753Z,2.60
2019-04-11T14:39:59.362Z,2.53
2019-04-11T14:42:47.483Z,2.77
2019-04-11T14:45:36.628Z,3.20
2019-04-11T14:48:19.300Z,2.90
2019-04-11T14:51:01.903Z,2.93
2019-04-11T14:53:36.929Z,2.80
2019-04-11T14:56:08.013Z,2.40
2019-04-11T14:58:58.936Z,2.63
2019-04-11T15:01:28.665Z,2.40
2019-04-11T15:04:15.683Z,2.80
2019-04-11T15:06:48.185Z,2.77
2019-04-11T15:09:25.326Z,2.80
2019-04-11T15:12:00.890Z,2.60
2019-04-11T15:14:51.807Z,2.60
2019-04-11T15:17:26.475Z,3.60
2019-04-11T15:20:20.984Z,2.27
2019-04-11T15:22:56.904Z,2.57
2019-04-11T15:25:50.926Z,2.60
2019-04-11T15:28:29.667Z,3.80
2019-04-11T15:31:02.738Z,3.00
2019-04-11T15:33:50.925Z,3.20
2019-04-11T15:36:20.647Z,3.17
2019-04-11T15:39:07.811Z,3.40
2019-04-11T15:41:38.143Z,3.20
2019-04-11T15:44:32.118Z,3.27
2019-04-11T15:47:02.209Z,3.40
2019-04-11T15:50:00.684Z,3.33
2019-04-11T15:52:30.349Z,3.20
2019-04-11T15:55:21.580Z,3.20
2019-04-11T15:57:55.982Z,2.97
2019-04-11T16:00:44.391Z,3.20
2019-04-11T16:03:24.503Z,3.60
2019-04-11T16:06:10.976Z,2.90
2019-04-11T16:08:45.479Z,3.10
2019-04-11T16:11:36.559Z,3.60
2019-04-11T16:14:10.277Z,3.60
2019-04-11T16:16:55.089Z,6.83
2019-04-11T16:19:41.850Z,4.10
2019-04-11T16:22:33.814Z,3.53
2019-04-11T16:25:08.522Z,3.20
2019-04-11T16:28:06.867Z,3.60
2019-04-11T16:30:33.938Z,4.33
2019-04-11T16:33:18.701Z,3.73
2019-04-11T16:35:57.795Z,4.40
2019-04-11T16:38:28.277Z,5.87
2019-04-11T16:41:15.666Z,4.47
2019-04-11T16:43:48.816Z,3.20
2019-04-11T16:46:39.781Z,4.07
2019-04-11T16:49:08.982Z,2.80
2019-04-11T16:51:38.178Z,2.60
2019-04-11T16:54:09.575Z,3.17
2019-04-11T16:56:38.503Z,2.50
2019-04-11T16:59:07.618Z,2.47
2019-04-11T17:01:36.803Z,2.97
2019-04-11T17:04:05.919Z,2.80
2019-04-11T17:06:56.048Z,2.80
2019-04-11T17:09:38.599Z,5.10
2019-04-11T17:12:07.928Z,6.40
2019-04-11T17:14:37.128Z,4.47
2019-04-11T17:17:14.872Z,4.03
2019-04-11T17:19:39.696Z,3.60
2019-04-11T17:22:12.091Z,2.97
2019-04-11T17:24:41.226Z,2.57
2019-04-11T17:27:10.388Z,2.57
2019-04-11T17:29:42.283Z,2.60
2019-04-11T17:32:13.896Z,2.40
2019-04-11T17:34:42.211Z,2.90
2019-04-11T17:37:12.092Z,2.70
2019-04-11T17:39:42.456Z,2.57
2019-04-11T17:42:20.814Z,3.90
2019-04-11T17:44:51.342Z,3.63
2019-04-11T17:47:26.732Z,6.03
2019-04-11T17:49:53.543Z,4.40
2019-04-11T17:52:24.851Z,4.03
2019-04-11T17:54:54.945Z,4.10
2019-04-11T17:57:27.110Z,4.50
2019-04-11T17:59:56.775Z,4.70
2019-04-11T18:02:27.628Z,5.80
2019-04-11T18:05:00.465Z,5.13
2019-04-11T18:07:29.873Z,5.47
2019-04-11T18:09:59.046Z,5.30
2019-04-11T18:12:28.150Z,5.40
2019-04-11T18:14:59.867Z,5.70
2019-04-11T18:17:28.340Z,6.27
2019-04-11T18:19:57.549Z,5.63
2019-04-11T18:22:26.724Z,8.00
2019-04-11T18:24:56.612Z,10.53
2019-04-11T18:27:26.116Z,9.93
2019-04-11T18:29:55.371Z,10.30
2019-04-11T18:32:25.009Z,9.07
2019-04-11T18:34:55.126Z,9.10
2019-04-11T18:37:24.738Z,8.37
2019-04-11T18:39:54.921Z,7.50
2019-04-11T18:42:24.174Z,6.50
2019-04-11T18:45:02.670Z,6.97
2019-04-11T18:47:33.954Z,6.80
2019-04-11T18:50:03.586Z,5.63
2019-04-11T18:52:34.763Z,5.90
2019-04-11T18:55:05.478Z,5.47
2019-04-11T18:57:35.006Z,5.07
2019-04-11T19:00:07.912Z,5.17
2019-04-11T19:02:37.954Z,4.60
2019-04-11T19:05:08.228Z,6.43
2019-04-11T19:07:37.381Z,4.90
2019-04-11T19:10:07.422Z,4.87
2019-04-11T19:12:37.491Z,5.50
2019-04-11T19:15:09.612Z,5.97
2019-04-11T19:17:40.188Z,5.23
2019-04-11T19:20:10.256Z,11.50
2019-04-11T19:22:39.657Z,10.30
2019-04-11T19:25:13.949Z,8.20
2019-04-11T19:27:43.993Z,8.20
2019-04-11T19:30:13.529Z,7.83
2019-04-11T19:32:42.899Z,6.30
2019-04-11T19:35:12.260Z,6.67
2019-04-11T19:37:42.105Z,6.77
2019-04-11T19:40:16.370Z,6.90
2019-04-11T19:42:48.838Z,5.90
2019-04-11T19:45:16.924Z,5.63
2019-04-11T19:47:51.710Z,5.93
2019-04-11T19:50:20.138Z,6.03
2019-04-11T19:52:58.158Z,6.00
2019-04-11T19:55:38.324Z,5.43
2019-04-11T19:58:08.034Z,5.80
2019-04-11T20:00:37.617Z,5.33
2019-04-11T20:03:08.479Z,5.67
2019-04-11T20:05:39.652Z,5.30
2019-04-11T20:08:12.501Z,5.00
2019-04-11T20:10:41.749Z,6.07
2019-04-11T20:13:12.367Z,5.90
2019-04-11T20:15:42.391Z,5.60
2019-04-11T20:18:12.509Z,6.17
2019-04-11T20:21:07.122Z,5.90
2019-04-11T20:26:22.555Z,5.40
2019-04-11T20:28:53.863Z,5.40
2019-04-11T20:31:28.626Z,5.30
2019-04-11T20:34:01.546Z,5.47
2019-04-11T20:36:40.837Z,6.30
2019-04-11T20:39:17.162Z,6.50
2019-04-11T20:41:55.298Z,5.60
2019-04-11T20:44:28.673Z,5.37
2019-04-11T20:47:00.444Z,5.57
2019-04-11T20:49:29.534Z,5.73
2019-04-11T20:52:01.691Z,5.70
2019-04-11T20:54:58.633Z,5.73
2019-04-11T20:57:32.933Z,5.53
2019-04-11T21:00:04.213Z,5.63
2019-04-11T21:02:33.470Z,5.80
2019-04-11T21:05:08.001Z,5.20
2019-04-11T21:07:39.158Z,5.23
2019-04-11T21:10:11.713Z,5.30
2019-04-11T21:12:47.959Z,4.90
2019-04-11T21:15:31.584Z,4.30
2019-04-11T21:18:02.733Z,5.27
2019-04-11T21:20:39.286Z,4.70
2019-04-11T21:23:10.082Z,4.37
2019-04-11T21:25:42.059Z,4.97
2019-04-11T21:28:11.453Z,4.73
2019-04-11T21:30:41.649Z,4.30
2019-04-11T21:33:18.479Z,4.43
2019-04-11T21:35:47.849Z,3.60
2019-04-11T21:38:21.925Z,3.50
2019-04-11T21:40:51.043Z,3.67
2019-04-11T21:43:21.369Z,3.70
2019-04-11T21:45:53.442Z,3.50
2019-04-11T21:48:25.339Z,3.83
2019-04-11T21:50:54.693Z,3.60
2019-04-11T21:53:35.827Z,3.90
2019-04-11T21:55:58.982Z,3.77
2019-04-11T21:58:28.665Z,9.37
2019-04-11T22:01:08.691Z,6.13
2019-04-11T22:03:40.885Z,5.90
2019-04-11T22:06:10.021Z,3.77
2019-04-11T22:08:39.885Z,4.00
2019-04-11T22:11:10.133Z,3.43
2019-04-11T22:13:40.475Z,3.40
2019-04-11T22:16:13.474Z,3.37
2019-04-11T22:18:41.062Z,3.47
2019-04-11T22:21:10.263Z,3.70
2019-04-11T22:23:48.353Z,2.97
2019-04-11T22:26:10.366Z,3.60
2019-04-11T22:28:39.568Z,3.90
2019-04-11T22:31:09.025Z,3.27
2019-04-11T22:34:00.928Z,3.00
2019-04-11T22:36:30.827Z,3.30
2019-04-11T22:39:01.647Z,3.03
2019-04-11T22:41:32.257Z,3.50
2019-04-11T22:44:03.403Z,4.10
2019-04-11T22:46:37.365Z,3.80
2019-04-11T22:49:08.646Z,4.00
2019-04-11T22:51:37.217Z,4.17
2019-04-11T22:54:06.456Z,4.87
2019-04-11T22:56:41.562Z,4.57
2019-04-11T22:59:13.555Z,4.57
2019-04-11T23:01:41.437Z,4.20
2019-04-11T23:04:10.762Z,3.70
2019-04-11T23:06:40.134Z,5.03
2019-04-11T23:09:10.029Z,5.10
2019-04-11T23:11:39.527Z,4.23
2019-04-11T23:14:09.453Z,3.43
2019-04-11T23:16:38.594Z,4.20
2019-04-11T23:19:07.755Z,3.87
2019-04-11T23:21:37.325Z,3.90
2019-04-11T23:24:12.174Z,3.77
2019-04-11T23:26:38.748Z,4.27
2019-04-11T23:29:08.779Z,3.90
2019-04-11T23:31:38.370Z,4.30
2019-04-11T23:34:07.536Z,26.03
2019-04-11T23:36:36.852Z,17.33
2019-04-11T23:39:07.191Z,8.40
2019-04-11T23:41:36.732Z,5.27
2019-04-11T23:44:06.145Z,4.77
2019-04-11T23:46:35.229Z,5.10
2019-04-11T23:49:04.354Z,4.40
2019-04-11T23:51:33.458Z,4.53
2019-04-11T23:54:02.558Z,4.53
2019-04-11T23:56:31.849Z,4.47
2019-04-11T23:59:02.131Z,4.70
